sensor_id;sensor_type;location;lat;lon;timestamp;temperature;humidity
15879;DHT22;61999;51.514;14.614;2023-03-14T00:01:09;5.70;82.30
15879;DHT22;61999;51.514;14.614;2023-03-14T00:03:38;5.60;82.40
15879;DHT22;61999;51.514;14.614;2023-03-14T00:06:07;5.80;82.10
15879;DHT22;61999;51.514;14.614;2023-03-14T00:08:37;5.80;82.40
15879;DHT22;61999;51.514;14.614;2023-03-14T00:11:07;5.80;81.90
15879;DHT22;61999;51.514;14.614;2023-03-14T00:13:36;5.90;81.30
15879;DHT22;61999;51.514;14.614;2023-03-14T00:16:06;5.90;81.60
15879;DHT22;61999;51.514;14.614;2023-03-14T00:18:36;5.80;80.50
15879;DHT22;61999;51.514;14.614;2023-03-14T00:21:05;5.60;80.80
15879;DHT22;61999;51.514;14.614;2023-03-14T00:23:37;5.30;81.10
15879;DHT22;61999;51.514;14.614;2023-03-14T00:26:09;5.10;81.20
15879;DHT22;61999;51.514;14.614;2023-03-14T00:28:39;5.10;82.60
15879;DHT22;61999;51.514;14.614;2023-03-14T00:31:09;5.20;84.10
15879;DHT22;61999;51.514;14.614;2023-03-14T00:33:38;5.30;84.30
15879;DHT22;61999;51.514;14.614;2023-03-14T00:36:08;5.40;83.30
15879;DHT22;61999;51.514;14.614;2023-03-14T00:38:39;5.20;82.00
15879;DHT22;61999;51.514;14.614;2023-03-14T00:41:11;5.20;82.90
15879;DHT22;61999;51.514;14.614;2023-03-14T00:43:40;5.10;83.00
15879;DHT22;61999;51.514;14.614;2023-03-14T00:46:09;5.10;83.80
15879;DHT22;61999;51.514;14.614;2023-03-14T00:48:38;5.00;82.80
15879;DHT22;61999;51.514;14.614;2023-03-14T00:51:07;5.00;83.10
15879;DHT22;61999;51.514;14.614;2023-03-14T00:53:39;5.20;82.70
15879;DHT22;61999;51.514;14.614;2023-03-14T00:56:10;5.20;83.80
15879;DHT22;61999;51.514;14.614;2023-03-14T00:58:39;5.30;83.20
15879;DHT22;61999;51.514;14.614;2023-03-14T01:01:09;5.50;82.30
15879;DHT22;61999;51.514;14.614;2023-03-14T01:03:39;5.40;81.00
15879;DHT22;61999;51.514;14.614;2023-03-14T01:06:12;5.20;81.80
15879;DHT22;61999;51.514;14.614;2023-03-14T01:08:43;5.20;83.00
15879;DHT22;61999;51.514;14.614;2023-03-14T01:11:14;5.40;82.60
15879;DHT22;61999;51.514;14.614;2023-03-14T01:13:44;5.40;81.10
15879;DHT22;61999;51.514;14.614;2023-03-14T01:16:13;5.30;82.40
15879;DHT22;61999;51.514;14.614;2023-03-14T01:18:42;5.20;82.30
15879;DHT22;61999;51.514;14.614;2023-03-14T01:21:13;5.30;83.60
15879;DHT22;61999;51.514;14.614;2023-03-14T01:23:45;5.30;83.50
15879;DHT22;61999;51.514;14.614;2023-03-14T01:26:16;5.40;83.00
15879;DHT22;61999;51.514;14.614;2023-03-14T01:28:47;5.40;82.90
15879;DHT22;61999;51.514;14.614;2023-03-14T01:31:16;5.50;82.10
15879;DHT22;61999;51.514;14.614;2023-03-14T01:33:45;5.50;82.50
15879;DHT22;61999;51.514;14.614;2023-03-14T01:36:14;5.50;82.70
15879;DHT22;61999;51.514;14.614;2023-03-14T01:38:42;5.50;79.80
15879;DHT22;61999;51.514;14.614;2023-03-14T01:41:14;5.50;82.00
15879;DHT22;61999;51.514;14.614;2023-03-14T01:43:44;5.40;82.80
15879;DHT22;61999;51.514;14.614;2023-03-14T01:46:28;5.40;82.70
15879;DHT22;61999;51.514;14.614;2023-03-14T01:49:03;5.30;81.60
15879;DHT22;61999;51.514;14.614;2023-03-14T01:51:38;5.40;82.90
15879;DHT22;61999;51.514;14.614;2023-03-14T01:54:16;5.50;82.50
15879;DHT22;61999;51.514;14.614;2023-03-14T01:56:53;5.40;81.90
15879;DHT22;61999;51.514;14.614;2023-03-14T01:59:25;5.40;82.70
15879;DHT22;61999;51.514;14.614;2023-03-14T02:01:56;5.20;81.40
15879;DHT22;61999;51.514;14.614;2023-03-14T02:04:28;5.20;82.70
15879;DHT22;61999;51.514;14.614;2023-03-14T02:07:04;5.30;82.60
15879;DHT22;61999;51.514;14.614;2023-03-14T02:09:36;5.20;82.30
15879;DHT22;61999;51.514;14.614;2023-03-14T02:12:08;5.10;83.00
15879;DHT22;61999;51.514;14.614;2023-03-14T02:14:38;5.00;81.90
15879;DHT22;61999;51.514;14.614;2023-03-14T02:17:08;5.00;82.20
15879;DHT22;61999;51.514;14.614;2023-03-14T02:19:50;5.00;83.50
15879;DHT22;61999;51.514;14.614;2023-03-14T02:22:25;5.10;83.70
15879;DHT22;61999;51.514;14.614;2023-03-14T02:24:59;5.10;83.00
15879;DHT22;61999;51.514;14.614;2023-03-14T02:27:36;5.10;82.60
15879;DHT22;61999;51.514;14.614;2023-03-14T02:30:06;5.00;82.10
15879;DHT22;61999;51.514;14.614;2023-03-14T02:32:41;4.90;80.80
15879;DHT22;61999;51.514;14.614;2023-03-14T02:35:15;4.80;82.20
15879;DHT22;61999;51.514;14.614;2023-03-14T02:37:51;4.80;82.00
15879;DHT22;61999;51.514;14.614;2023-03-14T02:40:21;4.60;82.00
15879;DHT22;61999;51.514;14.614;2023-03-14T02:42:50;4.60;81.50
15879;DHT22;61999;51.514;14.614;2023-03-14T02:45:45;4.60;82.90
15879;DHT22;61999;51.514;14.614;2023-03-14T02:48:18;4.70;83.30
15879;DHT22;61999;51.514;14.614;2023-03-14T02:50:49;4.70;83.60
15879;DHT22;61999;51.514;14.614;2023-03-14T02:53:23;4.70;83.30
15879;DHT22;61999;51.514;14.614;2023-03-14T02:55:53;4.90;82.70
15879;DHT22;61999;51.514;14.614;2023-03-14T02:58:22;5.00;82.20
15879;DHT22;61999;51.514;14.614;2023-03-14T03:00:50;5.10;80.90
15879;DHT22;61999;51.514;14.614;2023-03-14T03:03:18;5.20;80.60
15879;DHT22;61999;51.514;14.614;2023-03-14T03:05:48;5.20;80.40
15879;DHT22;61999;51.514;14.614;2023-03-14T03:08:17;5.40;79.30
15879;DHT22;61999;51.514;14.614;2023-03-14T03:10:45;5.50;78.70
15879;DHT22;61999;51.514;14.614;2023-03-14T03:13:13;5.50;78.40
15879;DHT22;61999;51.514;14.614;2023-03-14T03:15:42;5.50;78.20
15879;DHT22;61999;51.514;14.614;2023-03-14T03:18:11;5.40;78.70
15879;DHT22;61999;51.514;14.614;2023-03-14T03:20:39;5.40;78.70
15879;DHT22;61999;51.514;14.614;2023-03-14T03:23:07;5.40;77.90
15879;DHT22;61999;51.514;14.614;2023-03-14T03:25:35;5.40;77.70
15879;DHT22;61999;51.514;14.614;2023-03-14T03:28:03;5.40;77.50
15879;DHT22;61999;51.514;14.614;2023-03-14T03:30:37;5.60;76.70
15879;DHT22;61999;51.514;14.614;2023-03-14T03:33:07;5.50;77.00
15879;DHT22;61999;51.514;14.614;2023-03-14T03:35:41;5.40;77.40
15879;DHT22;61999;51.514;14.614;2023-03-14T03:38:10;5.20;78.00
15879;DHT22;61999;51.514;14.614;2023-03-14T03:40:39;5.10;77.90
15879;DHT22;61999;51.514;14.614;2023-03-14T03:43:07;5.00;78.90
15879;DHT22;61999;51.514;14.614;2023-03-14T03:45:35;5.20;78.10
15879;DHT22;61999;51.514;14.614;2023-03-14T03:48:03;5.30;77.30
15879;DHT22;61999;51.514;14.614;2023-03-14T03:50:33;5.30;77.50
15879;DHT22;61999;51.514;14.614;2023-03-14T03:53:01;5.30;76.70
15879;DHT22;61999;51.514;14.614;2023-03-14T03:55:29;5.30;76.70
15879;DHT22;61999;51.514;14.614;2023-03-14T03:57:57;5.30;76.70
15879;DHT22;61999;51.514;14.614;2023-03-14T04:00:25;5.20;76.90
15879;DHT22;61999;51.514;14.614;2023-03-14T04:02:53;5.20;76.30
15879;DHT22;61999;51.514;14.614;2023-03-14T04:05:21;5.20;76.50
15879;DHT22;61999;51.514;14.614;2023-03-14T04:07:50;5.20;76.50
15879;DHT22;61999;51.514;14.614;2023-03-14T04:10:18;5.20;76.70
15879;DHT22;61999;51.514;14.614;2023-03-14T04:12:46;5.20;76.20
15879;DHT22;61999;51.514;14.614;2023-03-14T04:15:14;5.20;75.50
15879;DHT22;61999;51.514;14.614;2023-03-14T04:17:42;5.20;75.00
15879;DHT22;61999;51.514;14.614;2023-03-14T04:20:11;5.10;74.90
15879;DHT22;61999;51.514;14.614;2023-03-14T04:22:39;5.10;75.00
15879;DHT22;61999;51.514;14.614;2023-03-14T04:25:11;5.00;74.70
15879;DHT22;61999;51.514;14.614;2023-03-14T04:27:39;4.90;75.60
15879;DHT22;61999;51.514;14.614;2023-03-14T04:30:08;4.90;75.20
15879;DHT22;61999;51.514;14.614;2023-03-14T04:32:39;4.80;75.40
15879;DHT22;61999;51.514;14.614;2023-03-14T04:35:07;4.70;75.80
15879;DHT22;61999;51.514;14.614;2023-03-14T04:37:36;4.70;75.70
15879;DHT22;61999;51.514;14.614;2023-03-14T04:40:05;4.90;75.10
15879;DHT22;61999;51.514;14.614;2023-03-14T04:42:35;5.10;74.00
15879;DHT22;61999;51.514;14.614;2023-03-14T04:45:04;5.00;74.20
15879;DHT22;61999;51.514;14.614;2023-03-14T04:47:33;5.10;73.30
15879;DHT22;61999;51.514;14.614;2023-03-14T04:50:01;5.10;73.20
15879;DHT22;61999;51.514;14.614;2023-03-14T04:52:30;5.10;73.10
15879;DHT22;61999;51.514;14.614;2023-03-14T04:54:58;5.00;73.10
15879;DHT22;61999;51.514;14.614;2023-03-14T04:57:26;5.00;72.80
15879;DHT22;61999;51.514;14.614;2023-03-14T04:59:55;5.00;72.70
15879;DHT22;61999;51.514;14.614;2023-03-14T05:02:23;5.00;72.50
15879;DHT22;61999;51.514;14.614;2023-03-14T05:04:51;5.00;72.70
15879;DHT22;61999;51.514;14.614;2023-03-14T05:07:19;5.10;72.10
15879;DHT22;61999;51.514;14.614;2023-03-14T05:09:47;5.00;72.20
15879;DHT22;61999;51.514;14.614;2023-03-14T05:12:15;5.00;71.90
15879;DHT22;61999;51.514;14.614;2023-03-14T05:14:43;5.10;71.40
15879;DHT22;61999;51.514;14.614;2023-03-14T05:17:12;5.10;71.30
15879;DHT22;61999;51.514;14.614;2023-03-14T05:19:41;5.00;72.00
15879;DHT22;61999;51.514;14.614;2023-03-14T05:22:09;5.00;71.70
15879;DHT22;61999;51.514;14.614;2023-03-14T05:24:38;4.90;71.80
15879;DHT22;61999;51.514;14.614;2023-03-14T05:27:06;5.00;71.40
15879;DHT22;61999;51.514;14.614;2023-03-14T05:29:34;5.00;71.10
15879;DHT22;61999;51.514;14.614;2023-03-14T05:32:02;5.00;70.90
15879;DHT22;61999;51.514;14.614;2023-03-14T05:34:32;5.20;69.70
15879;DHT22;61999;51.514;14.614;2023-03-14T05:37:00;5.20;69.80
15879;DHT22;61999;51.514;14.614;2023-03-14T05:39:28;5.20;69.80
15879;DHT22;61999;51.514;14.614;2023-03-14T05:41:56;5.20;69.70
15879;DHT22;61999;51.514;14.614;2023-03-14T05:44:24;5.10;70.00
15879;DHT22;61999;51.514;14.614;2023-03-14T05:46:52;5.30;69.60
15879;DHT22;61999;51.514;14.614;2023-03-14T05:49:20;5.30;69.50
15879;DHT22;61999;51.514;14.614;2023-03-14T05:51:50;5.40;68.70
15879;DHT22;61999;51.514;14.614;2023-03-14T05:54:18;5.30;68.90
15879;DHT22;61999;51.514;14.614;2023-03-14T05:56:46;5.30;68.80
15879;DHT22;61999;51.514;14.614;2023-03-14T05:59:13;5.10;69.20
15879;DHT22;61999;51.514;14.614;2023-03-14T06:01:41;5.20;69.40
15879;DHT22;61999;51.514;14.614;2023-03-14T06:04:09;5.30;68.70
15879;DHT22;61999;51.514;14.614;2023-03-14T06:06:37;5.30;68.60
15879;DHT22;61999;51.514;14.614;2023-03-14T06:09:07;5.30;68.70
15879;DHT22;61999;51.514;14.614;2023-03-14T06:11:35;5.40;67.40
15879;DHT22;61999;51.514;14.614;2023-03-14T06:14:03;5.40;68.10
15879;DHT22;61999;51.514;14.614;2023-03-14T06:16:31;5.40;67.90
15879;DHT22;61999;51.514;14.614;2023-03-14T06:18:59;5.40;67.10
15879;DHT22;61999;51.514;14.614;2023-03-14T06:21:27;5.50;68.10
15879;DHT22;61999;51.514;14.614;2023-03-14T06:23:55;5.50;67.10
15879;DHT22;61999;51.514;14.614;2023-03-14T06:26:24;5.50;67.40
15879;DHT22;61999;51.514;14.614;2023-03-14T06:28:52;5.50;67.60
15879;DHT22;61999;51.514;14.614;2023-03-14T06:31:20;5.60;66.80
15879;DHT22;61999;51.514;14.614;2023-03-14T06:33:48;5.60;66.30
15879;DHT22;61999;51.514;14.614;2023-03-14T06:36:16;5.60;67.10
15879;DHT22;61999;51.514;14.614;2023-03-14T06:38:44;5.60;66.70
15879;DHT22;61999;51.514;14.614;2023-03-14T06:41:12;5.80;66.30
15879;DHT22;61999;51.514;14.614;2023-03-14T06:43:41;5.90;65.30
15879;DHT22;61999;51.514;14.614;2023-03-14T06:46:10;5.90;66.00
15879;DHT22;61999;51.514;14.614;2023-03-14T06:48:38;6.00;66.80
15879;DHT22;61999;51.514;14.614;2023-03-14T06:51:06;6.10;65.10
15879;DHT22;61999;51.514;14.614;2023-03-14T06:53:34;6.10;65.00
15879;DHT22;61999;51.514;14.614;2023-03-14T06:56:02;6.00;65.60
15879;DHT22;61999;51.514;14.614;2023-03-14T06:58:30;6.00;65.30
15879;DHT22;61999;51.514;14.614;2023-03-14T07:00:59;6.00;65.00
15879;DHT22;61999;51.514;14.614;2023-03-14T07:03:28;6.00;65.70
15879;DHT22;61999;51.514;14.614;2023-03-14T07:05:56;6.10;64.80
15879;DHT22;61999;51.514;14.614;2023-03-14T07:08:24;6.20;64.40
15879;DHT22;61999;51.514;14.614;2023-03-14T07:10:52;6.20;64.10
15879;DHT22;61999;51.514;14.614;2023-03-14T07:13:20;6.10;64.60
15879;DHT22;61999;51.514;14.614;2023-03-14T07:15:48;6.20;65.00
15879;DHT22;61999;51.514;14.614;2023-03-14T07:18:17;6.20;64.40
15879;DHT22;61999;51.514;14.614;2023-03-14T07:20:45;6.30;64.50
15879;DHT22;61999;51.514;14.614;2023-03-14T07:23:15;6.30;63.30
15879;DHT22;61999;51.514;14.614;2023-03-14T07:25:43;6.20;64.10
15879;DHT22;61999;51.514;14.614;2023-03-14T07:28:11;6.10;64.30
15879;DHT22;61999;51.514;14.614;2023-03-14T07:30:39;6.10;64.50
15879;DHT22;61999;51.514;14.614;2023-03-14T07:33:07;6.20;65.30
15879;DHT22;61999;51.514;14.614;2023-03-14T07:35:38;6.30;64.90
15879;DHT22;61999;51.514;14.614;2023-03-14T07:38:06;6.60;63.80
15879;DHT22;61999;51.514;14.614;2023-03-14T07:40:34;6.80;63.40
15879;DHT22;61999;51.514;14.614;2023-03-14T07:43:02;6.90;63.20
15879;DHT22;61999;51.514;14.614;2023-03-14T07:45:30;6.90;61.50
15879;DHT22;61999;51.514;14.614;2023-03-14T07:47:58;6.90;62.80
15879;DHT22;61999;51.514;14.614;2023-03-14T07:50:26;6.70;62.40
15879;DHT22;61999;51.514;14.614;2023-03-14T07:52:56;6.70;63.40
15879;DHT22;61999;51.514;14.614;2023-03-14T07:55:23;6.70;63.10
15879;DHT22;61999;51.514;14.614;2023-03-14T07:57:51;6.80;62.70
15879;DHT22;61999;51.514;14.614;2023-03-14T08:00:20;6.80;62.20
15879;DHT22;61999;51.514;14.614;2023-03-14T08:02:48;6.70;61.20
15879;DHT22;61999;51.514;14.614;2023-03-14T08:05:17;6.70;62.20
15879;DHT22;61999;51.514;14.614;2023-03-14T08:07:44;6.80;62.80
15879;DHT22;61999;51.514;14.614;2023-03-14T08:10:14;7.00;62.20
15879;DHT22;61999;51.514;14.614;2023-03-14T08:12:48;7.00;61.70
15879;DHT22;61999;51.514;14.614;2023-03-14T08:15:16;7.10;62.20
15879;DHT22;61999;51.514;14.614;2023-03-14T08:17:44;7.30;60.50
15879;DHT22;61999;51.514;14.614;2023-03-14T08:20:17;7.30;59.90
15879;DHT22;61999;51.514;14.614;2023-03-14T08:22:46;7.10;61.20
15879;DHT22;61999;51.514;14.614;2023-03-14T08:25:16;7.10;61.30
15879;DHT22;61999;51.514;14.614;2023-03-14T08:27:44;7.20;61.60
15879;DHT22;61999;51.514;14.614;2023-03-14T08:30:15;7.50;60.00
15879;DHT22;61999;51.514;14.614;2023-03-14T08:32:45;7.70;59.30
15879;DHT22;61999;51.514;14.614;2023-03-14T08:35:13;7.60;59.20
15879;DHT22;61999;51.514;14.614;2023-03-14T08:37:42;7.60;59.30
15879;DHT22;61999;51.514;14.614;2023-03-14T08:40:11;7.70;59.50
15879;DHT22;61999;51.514;14.614;2023-03-14T08:42:41;7.60;58.40
15879;DHT22;61999;51.514;14.614;2023-03-14T08:45:12;7.50;59.40
15879;DHT22;61999;51.514;14.614;2023-03-14T08:47:41;7.30;59.30
15879;DHT22;61999;51.514;14.614;2023-03-14T08:50:11;7.40;60.00
15879;DHT22;61999;51.514;14.614;2023-03-14T08:52:42;7.50;59.60
15879;DHT22;61999;51.514;14.614;2023-03-14T08:55:10;7.50;59.40
15879;DHT22;61999;51.514;14.614;2023-03-14T08:57:38;7.50;59.20
15879;DHT22;61999;51.514;14.614;2023-03-14T09:00:08;7.60;59.50
15879;DHT22;61999;51.514;14.614;2023-03-14T09:02:41;7.60;59.30
15879;DHT22;61999;51.514;14.614;2023-03-14T09:05:10;7.60;59.40
15879;DHT22;61999;51.514;14.614;2023-03-14T09:07:38;7.50;57.70
15879;DHT22;61999;51.514;14.614;2023-03-14T09:10:08;7.30;59.00
15879;DHT22;61999;51.514;14.614;2023-03-14T09:12:37;7.30;59.60
15879;DHT22;61999;51.514;14.614;2023-03-14T09:15:08;7.50;59.20
15879;DHT22;61999;51.514;14.614;2023-03-14T09:17:36;7.50;59.10
15879;DHT22;61999;51.514;14.614;2023-03-14T09:20:05;7.40;59.70
15879;DHT22;61999;51.514;14.614;2023-03-14T09:22:35;7.50;59.50
15879;DHT22;61999;51.514;14.614;2023-03-14T09:25:04;7.60;58.90
15879;DHT22;61999;51.514;14.614;2023-03-14T09:27:33;7.80;58.60
15879;DHT22;61999;51.514;14.614;2023-03-14T09:30:01;7.80;57.40
15879;DHT22;61999;51.514;14.614;2023-03-14T09:32:31;7.70;58.20
15879;DHT22;61999;51.514;14.614;2023-03-14T09:34:59;7.80;58.70
15879;DHT22;61999;51.514;14.614;2023-03-14T09:37:27;7.70;58.40
15879;DHT22;61999;51.514;14.614;2023-03-14T09:39:55;7.60;58.30
15879;DHT22;61999;51.514;14.614;2023-03-14T09:42:25;7.60;58.40
15879;DHT22;61999;51.514;14.614;2023-03-14T09:44:57;7.50;58.80
15879;DHT22;61999;51.514;14.614;2023-03-14T09:47:30;7.60;59.00
15879;DHT22;61999;51.514;14.614;2023-03-14T09:50:01;7.70;59.10
15879;DHT22;61999;51.514;14.614;2023-03-14T09:52:33;7.80;58.70
15879;DHT22;61999;51.514;14.614;2023-03-14T09:55:06;7.80;58.40
15879;DHT22;61999;51.514;14.614;2023-03-14T09:57:39;8.00;58.10
15879;DHT22;61999;51.514;14.614;2023-03-14T10:00:14;8.10;57.80
15879;DHT22;61999;51.514;14.614;2023-03-14T10:02:51;8.00;58.10
15879;DHT22;61999;51.514;14.614;2023-03-14T10:05:24;8.10;57.00
15879;DHT22;61999;51.514;14.614;2023-03-14T10:07:54;8.10;57.40
15879;DHT22;61999;51.514;14.614;2023-03-14T10:10:25;8.20;57.60
15879;DHT22;61999;51.514;14.614;2023-03-14T10:12:58;8.30;57.50
15879;DHT22;61999;51.514;14.614;2023-03-14T10:15:31;8.40;57.80
15879;DHT22;61999;51.514;14.614;2023-03-14T10:18:05;8.50;56.00
15879;DHT22;61999;51.514;14.614;2023-03-14T10:20:40;8.40;57.00
15879;DHT22;61999;51.514;14.614;2023-03-14T10:23:24;8.10;56.50
15879;DHT22;61999;51.514;14.614;2023-03-14T10:26:03;7.90;56.50
15879;DHT22;61999;51.514;14.614;2023-03-14T10:28:38;8.00;56.50
15879;DHT22;61999;51.514;14.614;2023-03-14T10:31:07;7.90;55.90
15879;DHT22;61999;51.514;14.614;2023-03-14T10:33:38;7.70;55.20
15879;DHT22;61999;51.514;14.614;2023-03-14T10:36:17;7.40;55.40
15879;DHT22;61999;51.514;14.614;2023-03-14T10:38:49;7.30;56.70
15879;DHT22;61999;51.514;14.614;2023-03-14T10:41:20;7.40;56.80
15879;DHT22;61999;51.514;14.614;2023-03-14T10:43:54;7.50;56.60
15879;DHT22;61999;51.514;14.614;2023-03-14T10:46:29;7.70;55.90
15879;DHT22;61999;51.514;14.614;2023-03-14T10:49:05;7.80;55.50
15879;DHT22;61999;51.514;14.614;2023-03-14T10:51:33;7.60;55.90
15879;DHT22;61999;51.514;14.614;2023-03-14T10:54:03;7.60;55.50
15879;DHT22;61999;51.514;14.614;2023-03-14T10:56:40;7.70;55.40
15879;DHT22;61999;51.514;14.614;2023-03-14T10:59:13;7.60;55.80
15879;DHT22;61999;51.514;14.614;2023-03-14T11:01:48;7.60;56.10
15879;DHT22;61999;51.514;14.614;2023-03-14T11:04:46;7.80;55.20
15879;DHT22;61999;51.514;14.614;2023-03-14T11:07:39;7.70;55.70
15879;DHT22;61999;51.514;14.614;2023-03-14T11:10:14;7.90;55.20
15879;DHT22;61999;51.514;14.614;2023-03-14T11:12:55;7.80;55.10
15879;DHT22;61999;51.514;14.614;2023-03-14T11:15:36;7.70;55.30
15879;DHT22;61999;51.514;14.614;2023-03-14T11:18:36;7.70;55.80
15879;DHT22;61999;51.514;14.614;2023-03-14T11:21:21;7.90;55.40
15879;DHT22;61999;51.514;14.614;2023-03-14T11:24:08;7.80;55.60
15879;DHT22;61999;51.514;14.614;2023-03-14T11:26:50;7.80;56.30
15879;DHT22;61999;51.514;14.614;2023-03-14T11:29:28;8.10;55.40
15879;DHT22;61999;51.514;14.614;2023-03-14T11:32:04;7.90;56.00
15879;DHT22;61999;51.514;14.614;2023-03-14T11:34:48;8.10;56.20
15879;DHT22;61999;51.514;14.614;2023-03-14T11:37:24;8.10;56.30
15879;DHT22;61999;51.514;14.614;2023-03-14T11:40:01;8.00;56.80
15879;DHT22;61999;51.514;14.614;2023-03-14T11:42:37;8.20;56.50
15879;DHT22;61999;51.514;14.614;2023-03-14T11:45:16;8.30;56.30
15879;DHT22;61999;51.514;14.614;2023-03-14T11:47:53;8.40;56.00
15879;DHT22;61999;51.514;14.614;2023-03-14T11:50:29;8.50;55.20
15879;DHT22;61999;51.514;14.614;2023-03-14T11:53:03;8.40;55.50
15879;DHT22;61999;51.514;14.614;2023-03-14T11:55:39;8.40;55.20
15879;DHT22;61999;51.514;14.614;2023-03-14T11:58:14;8.30;55.30
15879;DHT22;61999;51.514;14.614;2023-03-14T12:00:47;8.40;55.20
15879;DHT22;61999;51.514;14.614;2023-03-14T12:03:24;8.50;54.80
15879;DHT22;61999;51.514;14.614;2023-03-14T12:06:09;8.40;55.40
15879;DHT22;61999;51.514;14.614;2023-03-14T12:08:49;8.40;55.20
15879;DHT22;61999;51.514;14.614;2023-03-14T12:11:26;8.40;55.20
15879;DHT22;61999;51.514;14.614;2023-03-14T12:14:00;8.60;54.90
15879;DHT22;61999;51.514;14.614;2023-03-14T12:16:34;8.70;54.20
15879;DHT22;61999;51.514;14.614;2023-03-14T12:22:23;8.80;54.50
15879;DHT22;61999;51.514;14.614;2023-03-14T12:25:03;8.50;54.90
15879;DHT22;61999;51.514;14.614;2023-03-14T12:30:47;8.50;55.10
15879;DHT22;61999;51.514;14.614;2023-03-14T12:33:32;8.30;55.30
15879;DHT22;61999;51.514;14.614;2023-03-14T12:39:27;8.30;55.40
15879;DHT22;61999;51.514;14.614;2023-03-14T12:42:10;8.30;56.40
15879;DHT22;61999;51.514;14.614;2023-03-14T12:44:46;8.40;56.30
15879;DHT22;61999;51.514;14.614;2023-03-14T12:47:50;8.40;56.00
15879;DHT22;61999;51.514;14.614;2023-03-14T12:50:25;8.70;55.20
15879;DHT22;61999;51.514;14.614;2023-03-14T12:56:34;8.60;54.80
15879;DHT22;61999;51.514;14.614;2023-03-14T12:59:28;8.50;55.80
15879;DHT22;61999;51.514;14.614;2023-03-14T13:02:21;8.40;54.70
15879;DHT22;61999;51.514;14.614;2023-03-14T13:04:59;8.30;55.30
15879;DHT22;61999;51.514;14.614;2023-03-14T13:10:39;8.60;55.50
15879;DHT22;61999;51.514;14.614;2023-03-14T13:13:19;8.50;54.10
15879;DHT22;61999;51.514;14.614;2023-03-14T13:15:54;8.30;55.60
15879;DHT22;61999;51.514;14.614;2023-03-14T13:18:29;8.60;54.10
15879;DHT22;61999;51.514;14.614;2023-03-14T13:21:03;8.40;55.30
15879;DHT22;61999;51.514;14.614;2023-03-14T13:23:37;8.90;55.00
15879;DHT22;61999;51.514;14.614;2023-03-14T13:26:11;9.30;54.70
15879;DHT22;61999;51.514;14.614;2023-03-14T13:28:42;9.50;53.50
15879;DHT22;61999;51.514;14.614;2023-03-14T13:31:20;9.70;52.50
15879;DHT22;61999;51.514;14.614;2023-03-14T13:33:57;9.80;51.70
15879;DHT22;61999;51.514;14.614;2023-03-14T13:36:26;10.00;51.50
15879;DHT22;61999;51.514;14.614;2023-03-14T13:38:56;10.00;51.30
15879;DHT22;61999;51.514;14.614;2023-03-14T13:41:26;9.90;52.70
15879;DHT22;61999;51.514;14.614;2023-03-14T13:44:02;10.00;52.80
15879;DHT22;61999;51.514;14.614;2023-03-14T13:46:37;10.10;51.00
15879;DHT22;61999;51.514;14.614;2023-03-14T13:49:09;9.80;51.20
15879;DHT22;61999;51.514;14.614;2023-03-14T13:51:45;9.60;51.60
15879;DHT22;61999;51.514;14.614;2023-03-14T13:54:14;9.30;53.20
15879;DHT22;61999;51.514;14.614;2023-03-14T13:56:44;9.10;53.80
15879;DHT22;61999;51.514;14.614;2023-03-14T13:59:22;9.00;55.60
15879;DHT22;61999;51.514;14.614;2023-03-14T14:01:53;8.80;55.20
15879;DHT22;61999;51.514;14.614;2023-03-14T14:04:24;8.70;56.10
15879;DHT22;61999;51.514;14.614;2023-03-14T14:06:55;8.60;56.50
15879;DHT22;61999;51.514;14.614;2023-03-14T14:09:27;8.50;60.00
15879;DHT22;61999;51.514;14.614;2023-03-14T14:11:59;8.00;62.40
15879;DHT22;61999;51.514;14.614;2023-03-14T14:14:48;7.70;63.60
15879;DHT22;61999;51.514;14.614;2023-03-14T14:17:24;7.80;63.70
15879;DHT22;61999;51.514;14.614;2023-03-14T14:19:56;7.70;64.40
15879;DHT22;61999;51.514;14.614;2023-03-14T14:22:25;7.70;65.10
15879;DHT22;61999;51.514;14.614;2023-03-14T14:24:54;7.60;65.00
15879;DHT22;61999;51.514;14.614;2023-03-14T14:27:28;7.70;65.50
15879;DHT22;61999;51.514;14.614;2023-03-14T14:30:00;7.90;66.30
15879;DHT22;61999;51.514;14.614;2023-03-14T14:32:36;8.10;65.50
15879;DHT22;61999;51.514;14.614;2023-03-14T14:35:08;8.30;65.80
15879;DHT22;61999;51.514;14.614;2023-03-14T14:37:49;8.40;65.40
15879;DHT22;61999;51.514;14.614;2023-03-14T14:40:21;8.70;63.70
15879;DHT22;61999;51.514;14.614;2023-03-14T14:42:51;9.10;62.00
15879;DHT22;61999;51.514;14.614;2023-03-14T14:45:22;9.30;59.80
15879;DHT22;61999;51.514;14.614;2023-03-14T14:47:55;9.40;59.30
15879;DHT22;61999;51.514;14.614;2023-03-14T14:50:29;9.40;59.40
15879;DHT22;61999;51.514;14.614;2023-03-14T14:53:00;9.60;58.30
15879;DHT22;61999;51.514;14.614;2023-03-14T14:55:32;9.60;58.30
15879;DHT22;61999;51.514;14.614;2023-03-14T14:58:12;9.40;58.80
15879;DHT22;61999;51.514;14.614;2023-03-14T15:00:53;9.40;58.80
15879;DHT22;61999;51.514;14.614;2023-03-14T15:03:26;9.70;56.80
15879;DHT22;61999;51.514;14.614;2023-03-14T15:05:56;9.60;56.30
15879;DHT22;61999;51.514;14.614;2023-03-14T15:08:26;9.50;56.40
15879;DHT22;61999;51.514;14.614;2023-03-14T15:10:54;9.40;56.40
15879;DHT22;61999;51.514;14.614;2023-03-14T15:13:23;9.30;56.30
15879;DHT22;61999;51.514;14.614;2023-03-14T15:15:51;9.30;55.70
15879;DHT22;61999;51.514;14.614;2023-03-14T15:18:25;9.00;56.80
15879;DHT22;61999;51.514;14.614;2023-03-14T15:20:57;8.90;57.40
15879;DHT22;61999;51.514;14.614;2023-03-14T15:23:24;9.00;56.50
15879;DHT22;61999;51.514;14.614;2023-03-14T15:25:53;8.90;56.40
15879;DHT22;61999;51.514;14.614;2023-03-14T15:28:23;8.90;57.00
15879;DHT22;61999;51.514;14.614;2023-03-14T15:30:53;8.70;57.10
15879;DHT22;61999;51.514;14.614;2023-03-14T15:33:25;8.50;58.20
15879;DHT22;61999;51.514;14.614;2023-03-14T15:35:53;8.60;57.40
15879;DHT22;61999;51.514;14.614;2023-03-14T15:38:23;8.40;58.00
15879;DHT22;61999;51.514;14.614;2023-03-14T15:40:52;8.50;56.90
15879;DHT22;61999;51.514;14.614;2023-03-14T15:43:21;8.50;56.70
15879;DHT22;61999;51.514;14.614;2023-03-14T15:45:49;8.50;56.60
15879;DHT22;61999;51.514;14.614;2023-03-14T15:48:20;8.50;56.90
15879;DHT22;61999;51.514;14.614;2023-03-14T15:50:50;8.50;56.40
15879;DHT22;61999;51.514;14.614;2023-03-14T15:53:18;8.40;57.00
15879;DHT22;61999;51.514;14.614;2023-03-14T15:55:46;8.40;56.70
15879;DHT22;61999;51.514;14.614;2023-03-14T15:58:16;8.40;56.40
15879;DHT22;61999;51.514;14.614;2023-03-14T16:00:48;8.30;56.70
15879;DHT22;61999;51.514;14.614;2023-03-14T16:03:17;8.30;56.50
15879;DHT22;61999;51.514;14.614;2023-03-14T16:05:45;8.40;56.50
15879;DHT22;61999;51.514;14.614;2023-03-14T16:08:14;8.30;56.80
15879;DHT22;61999;51.514;14.614;2023-03-14T16:10:43;8.30;56.50
15879;DHT22;61999;51.514;14.614;2023-03-14T16:13:11;8.50;55.90